createdAt,value
2023-02-11T00:01:14.867Z,60.63
2023-02-11T00:03:41.884Z,59.03
2023-02-11T00:06:11.742Z,60.47
2023-02-11T00:08:40.105Z,61.83
2023-02-11T00:11:07.672Z,61.45
2023-02-11T00:13:34.717Z,55.85
2023-02-11T00:16:08.231Z,58.80
2023-02-11T00:18:36.265Z,54.67
2023-02-11T00:21:08.960Z,59.03
2023-02-11T00:23:36.705Z,54.05
2023-02-11T00:26:04.770Z,57.88
2023-02-11T00:28:31.778Z,59.28
2023-02-11T00:30:58.968Z,56.38
2023-02-11T00:33:26.047Z,57.85
2023-02-11T00:35:53.282Z,58.45
2023-02-11T00:38:20.424Z,63.30
2023-02-11T00:40:47.306Z,65.60
2023-02-11T00:43:14.245Z,55.58
2023-02-11T00:45:41.254Z,55.28
2023-02-11T00:48:08.077Z,55.55
2023-02-11T00:50:35.483Z,58.13
2023-02-11T00:53:02.510Z,56.60
2023-02-11T00:55:29.587Z,52.70
2023-02-11T00:57:56.853Z,52.05
2023-02-11T01:00:23.687Z,54.35
2023-02-11T01:02:50.610Z,52.45
2023-02-11T01:05:17.753Z,53.95
2023-02-11T01:07:44.607Z,48.95
2023-02-11T01:10:12.540Z,53.08
2023-02-11T01:12:40.497Z,59.58
2023-02-11T01:15:09.702Z,56.92
2023-02-11T01:17:38.377Z,58.83
2023-02-11T01:20:08.356Z,58.10
2023-02-11T01:22:39.426Z,56.53
2023-02-11T01:25:08.690Z,58.72
2023-02-11T01:27:37.004Z,59.45
2023-02-11T01:30:07.893Z,54.00
2023-02-11T01:32:35.488Z,55.13
2023-02-11T01:35:02.798Z,56.60
2023-02-11T01:37:29.717Z,51.80
2023-02-11T01:39:57.457Z,47.63
2023-02-11T01:42:24.820Z,57.50
2023-02-11T01:44:54.318Z,56.85
2023-02-11T01:47:21.821Z,55.20
2023-02-11T01:49:57.544Z,50.75
2023-02-11T01:52:32.688Z,54.10
2023-02-11T01:55:25.946Z,47.53
2023-02-11T01:57:59.120Z,53.50
2023-02-11T02:00:37.623Z,58.42
2023-02-11T02:03:20.174Z,54.05
2023-02-11T02:06:06.199Z,51.55
2023-02-11T02:08:43.869Z,47.60
2023-02-11T02:11:10.935Z,54.50
2023-02-11T02:13:38.269Z,54.17
2023-02-11T02:16:15.768Z,50.58
2023-02-11T02:19:02.367Z,53.20
2023-02-11T02:22:14.092Z,48.28
2023-02-11T02:25:27.733Z,54.03
2023-02-11T02:28:48.420Z,45.28
2023-02-11T02:31:37.487Z,46.58
2023-02-11T02:34:16.073Z,57.00
2023-02-11T02:36:55.326Z,53.33
2023-02-11T02:39:29.241Z,53.50
2023-02-11T02:41:57.139Z,50.50
2023-02-11T02:44:24.751Z,50.50
2023-02-11T02:46:51.752Z,53.92
2023-02-11T02:49:18.829Z,46.80
2023-02-11T02:52:29.312Z,52.53
2023-02-11T02:55:22.472Z,56.03
2023-02-11T02:58:28.039Z,53.47
2023-02-11T03:01:28.619Z,53.85
2023-02-11T03:04:01.965Z,54.30
2023-02-11T03:06:53.503Z,52.78
2023-02-11T03:09:35.433Z,51.03
2023-02-11T03:12:04.316Z,47.83
2023-02-11T03:14:32.582Z,55.05
2023-02-11T03:17:02.521Z,49.53
2023-02-11T03:19:35.647Z,52.88
2023-02-11T03:22:11.768Z,50.95
2023-02-11T03:24:41.566Z,43.42
2023-02-11T03:27:27.184Z,45.90
2023-02-11T03:30:02.092Z,52.58
2023-02-11T03:32:37.229Z,48.85
2023-02-11T03:35:29.697Z,57.03
2023-02-11T03:37:57.996Z,52.25
2023-02-11T03:40:36.314Z,48.15
2023-02-11T03:43:17.293Z,50.80
2023-02-11T03:45:48.112Z,52.92
2023-02-11T03:48:24.051Z,52.65
2023-02-11T03:50:53.421Z,52.10
2023-02-11T03:53:22.750Z,52.70
2023-02-11T03:55:52.936Z,55.67
2023-02-11T03:58:20.347Z,58.40
2023-02-11T04:00:47.363Z,46.30
2023-02-11T04:03:14.443Z,54.03
2023-02-11T04:05:41.591Z,50.53
2023-02-11T04:08:09.321Z,49.88
2023-02-11T04:10:36.360Z,54.28
2023-02-11T04:13:03.389Z,59.13
2023-02-11T04:15:30.386Z,48.75
2023-02-11T04:17:57.219Z,52.70
2023-02-11T04:20:24.279Z,46.83
2023-02-11T04:22:51.104Z,51.63
2023-02-11T04:25:18.181Z,50.10
2023-02-11T04:27:45.012Z,47.33
2023-02-11T04:30:13.552Z,48.83
2023-02-11T04:32:40.603Z,50.33
2023-02-11T04:35:07.918Z,54.85
2023-02-11T04:37:35.586Z,53.60
2023-02-11T04:40:02.745Z,53.63
2023-02-11T04:42:29.771Z,56.63
2023-02-11T04:44:56.880Z,56.35
2023-02-11T04:47:23.832Z,51.33
2023-02-11T04:49:50.791Z,54.50
2023-02-11T04:52:17.675Z,58.92
2023-02-11T04:54:45.823Z,57.17
2023-02-11T04:57:12.694Z,58.45
2023-02-11T04:59:40.590Z,60.17
2023-02-11T05:02:07.631Z,61.88
2023-02-11T05:04:34.707Z,63.95
2023-02-11T05:07:01.960Z,57.20
2023-02-11T05:09:29.139Z,63.80
2023-02-11T05:11:56.208Z,63.00
2023-02-11T05:14:23.240Z,69.15
2023-02-11T05:16:50.301Z,65.85
2023-02-11T05:19:17.301Z,67.70
2023-02-11T05:22:00.271Z,63.55
2023-02-11T05:24:28.887Z,57.47
2023-02-11T05:26:56.040Z,63.35
2023-02-11T05:29:22.885Z,68.57
2023-02-11T05:31:49.715Z,62.03
2023-02-11T05:34:16.577Z,65.35
2023-02-11T05:36:43.692Z,66.43
2023-02-11T05:39:10.672Z,66.57
2023-02-11T05:41:38.331Z,70.53
2023-02-11T05:44:05.300Z,65.90
2023-02-11T05:46:32.330Z,64.45
2023-02-11T05:48:59.352Z,66.15
2023-02-11T05:51:26.327Z,62.38
2023-02-11T05:53:53.622Z,71.38
2023-02-11T05:56:20.640Z,65.30
2023-02-11T05:58:47.428Z,73.03
2023-02-11T06:01:14.323Z,59.65
2023-02-11T06:03:41.759Z,59.88
2023-02-11T06:06:12.612Z,66.38
2023-02-11T06:08:40.180Z,65.65
2023-02-11T06:11:07.415Z,67.50
2023-02-11T06:13:35.149Z,66.15
2023-02-11T06:16:03.187Z,66.05
2023-02-11T06:18:30.507Z,69.20
2023-02-11T06:20:57.395Z,71.03
2023-02-11T06:23:24.384Z,72.75
2023-02-11T06:25:52.714Z,85.78
2023-02-11T06:28:20.181Z,68.88
2023-02-11T06:30:47.389Z,66.90
2023-02-11T06:33:14.376Z,73.32
2023-02-11T06:35:41.379Z,67.15
2023-02-11T06:38:08.285Z,73.45
2023-02-11T06:40:35.254Z,78.13
2023-02-11T06:43:02.343Z,75.63
2023-02-11T06:45:29.404Z,70.05
2023-02-11T06:47:56.212Z,73.72
2023-02-11T06:50:23.353Z,68.53
2023-02-11T06:52:50.303Z,74.22
2023-02-11T06:55:17.614Z,72.70
2023-02-11T06:57:44.722Z,69.50
2023-02-11T07:00:12.728Z,69.68
2023-02-11T07:02:39.821Z,75.07
2023-02-11T07:05:08.091Z,76.65
2023-02-11T07:07:36.308Z,73.70
2023-02-11T07:10:04.508Z,81.15
2023-02-11T07:12:31.983Z,72.03
2023-02-11T07:14:58.888Z,70.78
2023-02-11T07:17:25.890Z,74.60
2023-02-11T07:19:52.794Z,66.43
2023-02-11T07:22:19.883Z,72.78
2023-02-11T07:24:46.904Z,74.57
2023-02-11T07:27:13.778Z,72.57
2023-02-11T07:29:42.708Z,68.95
2023-02-11T07:32:09.675Z,77.85
2023-02-11T07:34:36.857Z,82.93
2023-02-11T07:37:03.958Z,73.78
2023-02-11T07:39:30.990Z,77.35
2023-02-11T07:41:58.339Z,75.45
2023-02-11T07:44:25.956Z,79.22
2023-02-11T07:46:53.217Z,75.80
2023-02-11T07:49:20.178Z,71.80
2023-02-11T07:51:47.847Z,74.28
2023-02-11T07:54:14.925Z,80.30
2023-02-11T07:56:41.999Z,69.57
2023-02-11T07:59:09.000Z,92.63
2023-02-11T08:01:36.052Z,75.43
2023-02-11T08:04:03.883Z,76.80
2023-02-11T08:06:34.288Z,77.70
2023-02-11T08:09:07.739Z,70.05
2023-02-11T08:11:35.330Z,78.45
2023-02-11T08:14:02.590Z,71.05
2023-02-11T08:16:34.004Z,69.80
2023-02-11T08:19:05.063Z,72.10
2023-02-11T08:21:32.266Z,67.97
2023-02-11T08:23:59.390Z,72.05
2023-02-11T08:26:31.674Z,76.78
2023-02-11T08:28:59.307Z,71.35
2023-02-11T08:31:35.142Z,69.70
2023-02-11T08:34:02.758Z,64.78
2023-02-11T08:36:36.612Z,64.10
2023-02-11T08:39:18.685Z,71.35
2023-02-11T08:41:53.872Z,65.13
2023-02-11T08:44:22.470Z,66.00
2023-02-11T08:46:50.674Z,62.13
2023-02-11T08:49:18.142Z,67.50
2023-02-11T08:51:45.903Z,74.03
2023-02-11T08:54:14.187Z,73.60
2023-02-11T08:56:41.686Z,66.97
2023-02-11T08:59:12.799Z,62.95
2023-02-11T09:01:39.732Z,67.18
2023-02-11T09:04:06.628Z,65.85
2023-02-11T09:06:34.108Z,70.95
2023-02-11T09:09:01.656Z,64.90
2023-02-11T09:11:35.211Z,61.47
2023-02-11T09:14:04.020Z,64.10
2023-02-11T09:16:34.572Z,54.75
2023-02-11T09:19:05.033Z,58.15
2023-02-11T09:21:32.121Z,58.78
2023-02-11T09:23:59.260Z,66.55
2023-02-11T09:26:32.372Z,59.55
2023-02-11T09:29:00.199Z,53.95
2023-02-11T09:31:29.869Z,58.25
2023-02-11T09:34:03.551Z,55.88
2023-02-11T09:36:34.617Z,52.58
2023-02-11T09:39:04.491Z,51.78
2023-02-11T09:42:09.092Z,50.63
2023-02-11T09:44:38.537Z,53.38
2023-02-11T09:47:30.433Z,50.97
2023-02-11T09:50:07.455Z,59.83
2023-02-11T09:52:41.691Z,58.13
2023-02-11T09:55:28.389Z,54.55
2023-02-11T09:57:57.217Z,48.80
2023-02-11T10:00:54.197Z,49.53
2023-02-11T10:04:10.349Z,60.15
2023-02-11T10:07:11.070Z,49.45
2023-02-11T10:10:01.697Z,50.03
2023-02-11T10:13:16.771Z,51.67
2023-02-11T10:16:22.638Z,58.10
2023-02-11T10:19:23.835Z,49.40
2023-02-11T10:22:18.315Z,52.35
2023-02-11T10:24:58.178Z,49.15
2023-02-11T10:27:34.397Z,45.78
2023-02-11T10:30:24.251Z,48.25
2023-02-11T10:33:05.972Z,54.17
2023-02-11T10:35:33.559Z,42.22
2023-02-11T10:38:01.200Z,48.47
2023-02-11T10:40:31.268Z,51.75
2023-02-11T10:43:06.936Z,43.70
2023-02-11T10:45:48.821Z,44.58
2023-02-11T10:48:49.650Z,48.47
2023-02-11T10:51:25.824Z,50.38
2023-02-11T10:54:05.311Z,44.78
2023-02-11T10:56:38.272Z,55.58
2023-02-11T10:59:15.226Z,44.67
2023-02-11T11:01:48.461Z,44.20
2023-02-11T11:04:39.321Z,44.70
2023-02-11T11:07:24.416Z,46.08
2023-02-11T11:10:02.498Z,43.80
2023-02-11T11:12:48.794Z,43.70
2023-02-11T11:15:24.278Z,48.70
2023-02-11T11:18:21.885Z,42.60
2023-02-11T11:21:33.284Z,40.88
2023-02-11T11:24:04.018Z,40.03
2023-02-11T11:26:47.874Z,48.10
2023-02-11T11:29:46.207Z,41.75
2023-02-11T11:32:28.885Z,43.60
2023-02-11T11:35:17.712Z,40.47
2023-02-11T11:37:46.036Z,41.80
2023-02-11T11:40:15.963Z,39.03
2023-02-11T11:42:43.474Z,38.42
2023-02-11T11:45:16.443Z,42.28
2023-02-11T11:47:54.625Z,38.15
2023-02-11T11:50:55.918Z,39.28
2023-02-11T11:53:42.137Z,40.97
2023-02-11T11:56:23.371Z,35.35
2023-02-11T11:58:50.900Z,33.20
2023-02-11T12:01:51.858Z,40.75
2023-02-11T12:04:46.422Z,33.60
2023-02-11T12:08:03.923Z,31.90
2023-02-11T12:10:49.696Z,36.50
2023-02-11T12:14:08.065Z,32.72
2023-02-11T12:17:04.108Z,35.00
2023-02-11T12:19:50.577Z,33.03
2023-02-11T12:22:29.909Z,29.25
2023-02-11T12:25:08.885Z,31.90
2023-02-11T12:27:50.735Z,34.20
2023-02-11T12:30:17.647Z,29.88
2023-02-11T12:33:11.741Z,29.88
2023-02-11T12:36:16.006Z,25.15
2023-02-11T12:39:00.168Z,26.27
2023-02-11T12:42:17.076Z,31.50
2023-02-11T12:45:16.093Z,26.30
2023-02-11T12:48:04.200Z,24.88
2023-02-11T12:50:40.069Z,29.25
2023-02-11T12:53:32.242Z,27.17
2023-02-11T12:56:15.044Z,29.67
2023-02-11T12:58:45.736Z,23.67
2023-02-11T13:01:34.289Z,22.15
2023-02-11T13:04:18.062Z,28.13
2023-02-11T13:06:51.141Z,25.77
2023-02-11T13:09:46.552Z,23.45
2023-02-11T13:12:33.366Z,24.10
2023-02-11T13:15:07.557Z,22.50
2023-02-11T13:17:47.601Z,28.13
2023-02-11T13:20:59.962Z,22.52
2023-02-11T13:23:58.085Z,32.30
2023-02-11T13:26:40.632Z,24.67
2023-02-11T13:29:31.917Z,25.55
2023-02-11T13:32:14.499Z,26.27
2023-02-11T13:34:41.496Z,22.67
2023-02-11T13:37:37.733Z,22.52
2023-02-11T13:40:07.760Z,21.55
2023-02-11T13:42:50.099Z,20.75
2023-02-11T13:45:46.066Z,20.38
2023-02-11T13:48:26.598Z,23.88
2023-02-11T13:50:58.702Z,22.02
2023-02-11T13:53:26.302Z,27.58
2023-02-11T13:56:07.777Z,25.02
2023-02-11T13:58:47.084Z,21.30
2023-02-11T14:02:22.811Z,20.58
2023-02-11T14:05:42.791Z,20.90
2023-02-11T14:08:28.373Z,19.30
2023-02-11T14:10:58.008Z,24.98
2023-02-11T14:14:14.424Z,21.80
2023-02-11T14:16:59.750Z,19.55
2023-02-11T14:19:45.101Z,21.63
2023-02-11T14:22:44.092Z,20.77
2023-02-11T14:25:25.722Z,19.77
2023-02-11T14:28:22.001Z,17.75
2023-02-11T14:31:10.681Z,21.08
2023-02-11T14:33:40.616Z,18.27
2023-02-11T14:36:39.603Z,18.70
2023-02-11T14:39:24.220Z,14.50
2023-02-11T14:41:51.657Z,16.27
2023-02-11T14:44:31.519Z,17.70
2023-02-11T14:46:59.214Z,17.85
2023-02-11T14:49:34.320Z,15.43
2023-02-11T14:52:19.784Z,15.50
2023-02-11T14:54:50.312Z,17.15
2023-02-11T14:57:20.392Z,15.63
2023-02-11T15:00:14.203Z,16.83
2023-02-11T15:02:44.510Z,14.82
2023-02-11T15:05:27.462Z,15.10
2023-02-11T15:08:04.276Z,14.23
2023-02-11T15:10:42.007Z,13.95
2023-02-11T15:13:16.600Z,16.02
2023-02-11T15:15:46.303Z,14.40
2023-02-11T15:18:31.972Z,15.98
2023-02-11T15:20:59.088Z,13.82
2023-02-11T15:23:29.360Z,16.75
2023-02-11T15:25:56.518Z,15.32
2023-02-11T15:28:30.803Z,12.88
2023-02-11T15:31:16.779Z,14.98
2023-02-11T15:33:43.965Z,13.67
2023-02-11T15:36:13.892Z,12.73
2023-02-11T15:38:41.126Z,12.70
2023-02-11T15:41:37.970Z,13.13
2023-02-11T15:44:05.242Z,16.70
2023-02-11T15:46:39.312Z,12.40
2023-02-11T15:49:08.640Z,14.32
2023-02-11T15:51:37.786Z,14.73
2023-02-11T15:54:21.593Z,13.18
2023-02-11T15:56:59.151Z,12.60
2023-02-11T15:59:38.034Z,11.60
2023-02-11T16:02:18.630Z,14.45
2023-02-11T16:04:57.313Z,12.05
2023-02-11T16:07:50.308Z,11.57
2023-02-11T16:10:24.496Z,8.15
2023-02-11T16:12:53.390Z,8.65
2023-02-11T16:15:43.005Z,11.00
2023-02-11T16:18:36.716Z,12.77
2023-02-11T16:21:07.362Z,8.10
2023-02-11T16:23:44.303Z,8.45
2023-02-11T16:26:32.948Z,8.77
2023-02-11T16:29:25.982Z,8.00
2023-02-11T16:32:09.131Z,7.38
2023-02-11T16:34:36.849Z,9.05
2023-02-11T16:37:05.610Z,7.50
2023-02-11T16:39:33.061Z,9.27
2023-02-11T16:42:01.194Z,8.35
2023-02-11T16:44:29.225Z,12.85
2023-02-11T16:47:00.210Z,8.48
2023-02-11T16:49:32.272Z,8.23
2023-02-11T16:52:01.913Z,9.32
2023-02-11T16:54:30.199Z,11.10
2023-02-11T16:56:57.951Z,7.80
2023-02-11T16:59:25.119Z,8.90
2023-02-11T17:01:54.647Z,7.53
2023-02-11T17:04:28.757Z,7.78
2023-02-11T17:06:58.222Z,7.30
2023-02-11T17:09:30.607Z,6.88
2023-02-11T17:11:58.095Z,5.95
2023-02-11T17:14:25.110Z,5.60
2023-02-11T17:16:52.032Z,6.80
2023-02-11T17:19:21.560Z,6.43
2023-02-11T17:21:51.731Z,6.53
2023-02-11T17:24:20.178Z,6.25
2023-02-11T17:26:48.413Z,11.23
2023-02-11T17:29:19.216Z,8.27
2023-02-11T17:31:46.362Z,8.07
2023-02-11T17:34:13.344Z,7.18
2023-02-11T17:36:41.374Z,7.70
2023-02-11T17:39:08.529Z,6.47
2023-02-11T17:41:37.436Z,5.70
2023-02-11T17:44:05.168Z,8.40
2023-02-11T17:46:32.540Z,7.30
2023-02-11T17:49:00.233Z,7.25
2023-02-11T17:51:34.097Z,6.32
2023-02-11T17:54:07.403Z,5.88
2023-02-11T17:56:36.698Z,7.82
2023-02-11T17:59:05.534Z,10.15
2023-02-11T18:01:34.176Z,6.97
2023-02-11T18:04:01.883Z,6.88
2023-02-11T18:06:29.352Z,5.93
2023-02-11T18:08:59.851Z,6.60
2023-02-11T18:11:27.938Z,6.60
2023-02-11T18:13:55.419Z,7.30
2023-02-11T18:16:25.018Z,7.55
2023-02-11T18:18:53.309Z,6.70
2023-02-11T18:21:22.814Z,8.98
2023-02-11T18:23:50.472Z,7.25
2023-02-11T18:26:20.986Z,6.47
2023-02-11T18:28:48.090Z,5.80
2023-02-11T18:31:15.199Z,5.05
2023-02-11T18:33:42.769Z,7.82
2023-02-11T18:36:13.628Z,8.48
2023-02-11T18:38:42.142Z,5.78
2023-02-11T18:41:09.275Z,6.32
2023-02-11T18:43:37.063Z,6.53
2023-02-11T18:46:11.344Z,7.13
2023-02-11T18:48:39.851Z,6.55
2023-02-11T18:51:19.932Z,4.47
2023-02-11T18:53:47.211Z,9.80
2023-02-11T18:56:18.755Z,7.57
2023-02-11T18:58:46.051Z,6.35
2023-02-11T19:01:24.376Z,8.73
2023-02-11T19:03:52.326Z,6.38
2023-02-11T19:06:26.087Z,6.53
2023-02-11T19:09:00.705Z,5.63
2023-02-11T19:11:50.015Z,7.05
2023-02-11T19:14:34.138Z,11.93
2023-02-11T19:17:05.554Z,6.90
2023-02-11T19:19:35.717Z,6.72
2023-02-11T19:22:08.504Z,5.00
2023-02-11T19:24:37.896Z,5.72
2023-02-11T19:27:05.585Z,5.72
2023-02-11T19:29:34.941Z,5.85
2023-02-11T19:32:05.765Z,5.55
2023-02-11T19:34:33.789Z,6.25
2023-02-11T19:37:01.548Z,7.00
2023-02-11T19:39:28.707Z,5.47
2023-02-11T19:41:55.813Z,6.82
2023-02-11T19:44:23.029Z,6.78
2023-02-11T19:46:53.059Z,5.88
2023-02-11T19:49:23.502Z,5.57
2023-02-11T19:51:51.600Z,6.18
2023-02-11T19:54:20.291Z,7.63
2023-02-11T19:56:48.718Z,10.45
2023-02-11T19:59:16.620Z,5.65
2023-02-11T20:01:46.253Z,7.13
2023-02-11T20:04:13.732Z,8.40
2023-02-11T20:06:40.814Z,8.07
2023-02-11T20:09:13.181Z,8.32
2023-02-11T20:11:40.824Z,8.25
2023-02-11T20:14:08.617Z,7.75
2023-02-11T20:16:47.476Z,8.40
2023-02-11T20:19:22.010Z,7.85
2023-02-11T20:21:52.661Z,9.70
2023-02-11T20:24:21.497Z,6.90
2023-02-11T20:26:49.390Z,9.40
2023-02-11T20:29:18.369Z,7.68
2023-02-11T20:31:46.366Z,8.55
2023-02-11T20:34:13.793Z,7.15
2023-02-11T20:36:40.904Z,6.63
2023-02-11T20:39:10.067Z,8.77
2023-02-11T20:41:40.959Z,7.80
2023-02-11T20:44:11.161Z,7.07
2023-02-11T20:46:42.553Z,14.23
2023-02-11T20:49:12.913Z,7.88
2023-02-11T20:51:40.782Z,7.40
2023-02-11T20:54:14.180Z,8.05
2023-02-11T20:56:41.463Z,9.93
2023-02-11T20:59:08.894Z,9.07
2023-02-11T21:01:43.248Z,10.13
2023-02-11T21:04:21.197Z,8.23
2023-02-11T21:06:55.145Z,6.90
2023-02-11T21:09:26.540Z,8.18
2023-02-11T21:11:54.772Z,6.00
2023-02-11T21:14:24.652Z,8.90
2023-02-11T21:16:52.026Z,7.22
2023-02-11T21:19:19.392Z,11.23
2023-02-11T21:21:47.070Z,12.63
2023-02-11T21:24:14.582Z,11.90
2023-02-11T21:26:41.534Z,9.00
2023-02-11T21:29:09.075Z,9.35
2023-02-11T21:31:37.961Z,7.90
2023-02-11T21:34:06.109Z,9.13
2023-02-11T21:36:33.421Z,9.40
2023-02-11T21:39:01.685Z,7.13
2023-02-11T21:41:29.412Z,8.90
2023-02-11T21:43:57.123Z,6.40
2023-02-11T21:46:24.522Z,10.85
2023-02-11T21:48:52.449Z,11.20
2023-02-11T21:51:23.384Z,9.15
2023-02-11T21:53:59.823Z,10.43
2023-02-11T21:56:28.187Z,8.90
2023-02-11T21:58:57.670Z,10.65
2023-02-11T22:01:29.250Z,11.00
2023-02-11T22:03:58.340Z,7.95
2023-02-11T22:06:31.377Z,13.80
2023-02-11T22:08:59.051Z,8.98
2023-02-11T22:11:26.038Z,8.23
2023-02-11T22:13:55.418Z,8.85
2023-02-11T22:16:23.621Z,10.48
2023-02-11T22:18:51.350Z,9.82
2023-02-11T22:21:21.559Z,15.43
2023-02-11T22:23:49.341Z,8.85
2023-02-11T22:26:21.131Z,7.85
2023-02-11T22:28:49.450Z,7.45
2023-02-11T22:31:29.561Z,10.32
2023-02-11T22:33:57.543Z,13.02
2023-02-11T22:36:45.274Z,11.27
2023-02-11T22:39:15.212Z,10.82
2023-02-11T22:41:44.222Z,10.07
2023-02-11T22:44:11.966Z,12.88
2023-02-11T22:46:39.723Z,14.52
2023-02-11T22:49:07.321Z,15.63
2023-02-11T22:51:34.832Z,13.57
2023-02-11T22:54:05.622Z,8.27
2023-02-11T22:56:34.838Z,12.85
2023-02-11T22:59:05.676Z,6.72
2023-02-11T23:01:33.638Z,17.60
2023-02-11T23:04:03.922Z,14.73
2023-02-11T23:06:31.129Z,14.13
2023-02-11T23:08:58.674Z,13.30
2023-02-11T23:11:28.901Z,12.38
2023-02-11T23:13:56.605Z,11.77
2023-02-11T23:16:33.253Z,14.32
2023-02-11T23:19:04.141Z,10.75
2023-02-11T23:21:34.628Z,12.00
2023-02-11T23:24:07.227Z,13.52
2023-02-11T23:26:35.183Z,15.52
2023-02-11T23:29:02.668Z,12.23
2023-02-11T23:31:37.449Z,15.40
2023-02-11T23:34:05.940Z,12.07
2023-02-11T23:36:33.556Z,11.20
2023-02-11T23:39:00.654Z,15.43
2023-02-11T23:41:28.567Z,14.98
2023-02-11T23:43:57.944Z,12.07
2023-02-11T23:46:27.458Z,11.07
2023-02-11T23:48:54.479Z,15.10
2023-02-11T23:51:22.627Z,18.45
2023-02-11T23:53:50.269Z,14.82
2023-02-11T23:56:24.300Z,15.00
2023-02-11T23:58:54.315Z,14.25
